createdAt,value
2023-05-17T00:03:36.090Z,15.00
2023-05-17T00:08:38.876Z,15.00
2023-05-17T00:13:42.348Z,12.00
2023-05-17T00:18:46.678Z,11.00
2023-05-17T00:23:49.508Z,14.50
2023-05-17T00:28:52.283Z,12.50
2023-05-17T00:33:56.485Z,10.75
2023-05-17T00:38:59.323Z,9.50
2023-05-17T00:44:02.175Z,10.25
2023-05-17T00:49:06.657Z,12.00
2023-05-17T00:54:10.306Z,9.00
2023-05-17T00:59:14.997Z,10.00
2023-05-17T01:04:19.811Z,12.50
2023-05-17T01:09:23.056Z,12.25
2023-05-17T01:14:41.273Z,9.75
2023-05-17T01:19:58.115Z,11.00
2023-05-17T01:25:11.897Z,9.50
2023-05-17T01:30:18.111Z,8.00
2023-05-17T01:35:20.971Z,11.50
2023-05-17T01:40:24.688Z,14.50
2023-05-17T01:45:33.608Z,9.00
2023-05-17T01:50:37.802Z,12.75
2023-05-17T01:55:45.852Z,9.00
2023-05-17T02:00:53.422Z,11.25
2023-05-17T02:05:56.202Z,10.50
2023-05-17T02:10:59.059Z,8.75
2023-05-17T02:16:03.981Z,8.00
2023-05-17T02:21:08.798Z,11.25
2023-05-17T02:26:12.632Z,8.50
2023-05-17T02:31:16.762Z,10.25
2023-05-17T02:36:19.562Z,12.25
2023-05-17T02:41:22.400Z,10.00
2023-05-17T02:46:28.270Z,9.00
2023-05-17T02:51:31.191Z,7.75
2023-05-17T02:56:34.079Z,7.75
2023-05-17T03:01:38.457Z,12.25
2023-05-17T03:06:41.446Z,8.25
2023-05-17T03:11:44.732Z,10.25
2023-05-17T03:16:56.097Z,12.00
2023-05-17T03:21:59.553Z,8.00
2023-05-17T03:27:02.529Z,8.75
2023-05-17T03:32:07.986Z,7.75
2023-05-17T03:37:11.013Z,5.75
2023-05-17T03:42:14.247Z,8.75
2023-05-17T03:47:19.250Z,7.25
2023-05-17T03:52:22.072Z,6.50
2023-05-17T03:57:25.355Z,6.25
2023-05-17T04:02:29.602Z,7.00
2023-05-17T04:07:32.485Z,10.00
2023-05-17T04:12:35.343Z,5.50
2023-05-17T04:17:39.570Z,7.75
2023-05-17T04:22:42.388Z,6.75
2023-05-17T04:27:47.437Z,7.25
2023-05-17T04:32:51.978Z,5.00
2023-05-17T04:37:55.372Z,7.75
2023-05-17T04:42:58.674Z,5.75
2023-05-17T04:48:04.203Z,5.75
2023-05-17T04:53:08.763Z,7.75
2023-05-17T04:58:13.084Z,5.00
2023-05-17T05:03:17.450Z,4.00
2023-05-17T05:08:21.872Z,6.00
2023-05-17T05:13:24.868Z,6.25
2023-05-17T05:18:30.822Z,4.50
2023-05-17T05:23:34.427Z,6.25
2023-05-17T05:28:37.564Z,6.75
2023-05-17T05:33:42.923Z,5.25
2023-05-17T05:38:46.018Z,5.00
2023-05-17T05:43:48.872Z,4.25
2023-05-17T05:48:53.401Z,2.50
2023-05-17T05:53:56.451Z,5.25
2023-05-17T05:58:59.324Z,4.25
2023-05-17T06:04:04.185Z,4.50
2023-05-17T06:09:07.480Z,3.75
2023-05-17T06:14:11.333Z,3.00
2023-05-17T06:19:15.604Z,6.00
2023-05-17T06:24:18.640Z,3.00
2023-05-17T06:29:21.410Z,4.00
2023-05-17T06:34:25.553Z,5.00
2023-05-17T06:39:28.597Z,4.00
2023-05-17T06:44:31.558Z,4.00
2023-05-17T06:49:36.091Z,4.00
2023-05-17T06:54:38.956Z,3.00
2023-05-17T06:59:42.806Z,4.25
2023-05-17T07:04:47.109Z,4.25
2023-05-17T07:09:50.037Z,2.00
2023-05-17T07:14:53.090Z,7.25
2023-05-17T07:19:57.460Z,9.50
2023-05-17T07:25:00.501Z,7.00
2023-05-17T07:30:04.075Z,8.00
2023-05-17T07:35:08.890Z,7.75
2023-05-17T07:40:12.796Z,8.00
2023-05-17T07:45:16.048Z,4.25
2023-05-17T07:50:20.363Z,3.00
2023-05-17T07:55:23.234Z,5.00
2023-05-17T08:00:27.813Z,5.75
2023-05-17T08:05:32.319Z,7.75
2023-05-17T08:10:36.615Z,3.25
2023-05-17T08:15:39.672Z,3.00
2023-05-17T08:20:44.241Z,5.00
2023-05-17T08:25:47.133Z,6.00
2023-05-17T08:30:50.106Z,3.00
2023-05-17T08:35:57.799Z,3.25
2023-05-17T08:41:02.126Z,6.00
2023-05-17T08:46:05.280Z,3.00
2023-05-17T08:51:11.698Z,3.75
2023-05-17T08:56:18.644Z,5.50
2023-05-17T09:01:32.277Z,3.00
2023-05-17T09:06:43.560Z,5.00
2023-05-17T09:11:46.584Z,3.00
2023-05-17T09:16:57.370Z,2.25
2023-05-17T09:22:02.823Z,4.00
2023-05-17T09:27:05.990Z,5.25
2023-05-17T09:32:21.654Z,3.25
2023-05-17T09:37:27.135Z,6.50
2023-05-17T09:42:30.021Z,4.00
2023-05-17T09:47:34.165Z,3.25
2023-05-17T09:52:40.075Z,4.00
2023-05-17T09:57:44.480Z,3.00
2023-05-17T10:02:51.076Z,3.00
2023-05-17T10:07:57.546Z,3.00
2023-05-17T10:13:02.030Z,4.00
2023-05-17T10:18:07.862Z,2.75
2023-05-17T10:23:13.003Z,4.00
2023-05-17T10:28:18.482Z,3.25
2023-05-17T10:33:21.985Z,3.25
2023-05-17T10:38:38.744Z,2.50
2023-05-17T10:43:47.027Z,2.50
2023-05-17T10:48:51.969Z,6.00
2023-05-17T10:54:12.026Z,5.25
2023-05-17T10:59:17.505Z,2.75
2023-05-17T11:04:25.618Z,3.75
2023-05-17T11:09:33.430Z,4.50
2023-05-17T11:14:50.095Z,3.50
2023-05-17T11:20:13.406Z,4.25
2023-05-17T11:25:19.698Z,3.00
2023-05-17T11:30:26.724Z,2.50
2023-05-17T11:35:33.244Z,3.00
2023-05-17T11:40:37.852Z,3.00
2023-05-17T11:45:43.445Z,3.00
2023-05-17T11:50:48.824Z,3.00
2023-05-17T11:55:54.551Z,3.25
2023-05-17T12:00:59.398Z,2.00
2023-05-17T12:06:05.911Z,2.00
2023-05-17T12:11:13.462Z,3.75
2023-05-17T12:16:18.494Z,1.75
2023-05-17T12:21:23.274Z,2.00
2023-05-17T12:26:28.482Z,2.00
2023-05-17T12:31:34.747Z,2.50
2023-05-17T12:36:38.240Z,2.25
2023-05-17T12:41:44.046Z,1.75
2023-05-17T12:46:50.489Z,3.25
2023-05-17T12:51:53.295Z,2.75
2023-05-17T12:56:57.887Z,4.00
2023-05-17T13:02:00.956Z,3.00
2023-05-17T13:07:06.244Z,55.00
2023-05-17T13:12:10.495Z,79.40
2023-05-17T13:17:17.856Z,140.80
2023-05-17T13:22:20.786Z,199.20
2023-05-17T13:27:24.959Z,209.20
2023-05-17T13:32:27.881Z,265.50
2023-05-17T13:37:30.792Z,257.20
2023-05-17T13:42:35.121Z,215.60
2023-05-17T13:47:38.104Z,185.60
2023-05-17T13:52:42.445Z,184.80
2023-05-17T13:57:46.909Z,163.20
2023-05-17T14:02:50.431Z,144.40
2023-05-17T14:07:54.245Z,150.40
2023-05-17T14:12:58.741Z,175.40
2023-05-17T14:18:01.736Z,165.00
2023-05-17T14:23:04.889Z,150.00
2023-05-17T14:28:09.358Z,146.20
2023-05-17T14:33:12.589Z,136.80
2023-05-17T14:38:15.647Z,128.60
2023-05-17T14:43:20.948Z,128.00
2023-05-17T14:48:23.927Z,127.00
2023-05-17T14:53:29.197Z,114.20
2023-05-17T14:58:33.407Z,114.00
2023-05-17T15:03:36.440Z,106.00
2023-05-17T15:08:39.733Z,101.40
2023-05-17T15:13:43.974Z,101.20
2023-05-17T15:18:46.862Z,92.60
2023-05-17T15:23:50.752Z,91.40
2023-05-17T15:28:56.151Z,91.40
2023-05-17T15:33:59.223Z,88.60
2023-05-17T15:39:02.144Z,90.40
2023-05-17T15:44:09.157Z,82.00
2023-05-17T15:49:12.328Z,80.60
2023-05-17T15:54:15.823Z,80.60
2023-05-17T15:59:20.031Z,84.40
2023-05-17T16:04:22.978Z,85.20
2023-05-17T16:09:26.236Z,75.40
2023-05-17T16:14:30.512Z,77.20
2023-05-17T16:19:34.119Z,75.40
2023-05-17T16:24:37.576Z,79.20
2023-05-17T16:29:41.766Z,73.00
2023-05-17T16:34:44.638Z,68.20
2023-05-17T16:39:47.520Z,60.60
2023-05-17T16:44:52.664Z,61.80
2023-05-17T16:49:56.555Z,61.20
2023-05-17T16:55:03.445Z,55.20
2023-05-17T17:00:11.270Z,49.80
2023-05-17T17:05:14.224Z,50.40
2023-05-17T17:10:17.196Z,47.20
2023-05-17T17:15:21.871Z,40.00
2023-05-17T17:20:24.991Z,34.00
2023-05-17T17:25:28.270Z,35.20
2023-05-17T17:30:32.687Z,29.25
2023-05-17T17:35:35.656Z,29.75
2023-05-17T17:40:38.480Z,25.75
2023-05-17T17:45:42.843Z,27.25
2023-05-17T17:50:45.610Z,26.75
2023-05-17T17:55:48.651Z,21.00
2023-05-17T18:00:53.716Z,21.50
2023-05-17T18:05:56.510Z,19.25
2023-05-17T18:10:59.439Z,21.00
2023-05-17T18:16:03.902Z,19.50
2023-05-17T18:21:06.929Z,27.50
2023-05-17T18:26:09.874Z,17.75
2023-05-17T18:31:14.945Z,20.25
2023-05-17T18:36:17.838Z,19.25
2023-05-17T18:41:20.859Z,20.25
2023-05-17T18:46:25.073Z,19.00
2023-05-17T18:51:28.933Z,18.25
2023-05-17T18:56:32.680Z,19.50
2023-05-17T19:01:36.972Z,14.25
2023-05-17T19:06:41.367Z,17.25
2023-05-17T19:11:44.339Z,22.75
2023-05-17T19:16:50.177Z,19.25
2023-05-17T19:21:53.078Z,20.75
2023-05-17T19:26:55.946Z,21.75
2023-05-17T19:32:00.278Z,14.75
2023-05-17T19:37:03.116Z,17.25
2023-05-17T19:42:06.445Z,16.50
2023-05-17T19:47:10.657Z,19.75
2023-05-17T19:52:13.543Z,19.50
2023-05-17T19:57:16.428Z,14.25
2023-05-17T20:02:20.727Z,17.75
2023-05-17T20:07:26.084Z,17.50
2023-05-17T20:12:29.162Z,21.25
2023-05-17T20:17:33.554Z,16.50
2023-05-17T20:22:37.772Z,15.75
2023-05-17T20:27:40.609Z,13.25
2023-05-17T20:32:44.928Z,15.00
2023-05-17T20:37:47.737Z,16.50
2023-05-17T20:42:52.999Z,16.25
2023-05-17T20:47:57.255Z,13.50
2023-05-17T20:53:00.058Z,14.50
2023-05-17T20:58:02.899Z,14.75
2023-05-17T21:03:09.328Z,17.00
2023-05-17T21:08:13.251Z,15.00
2023-05-17T21:13:16.080Z,13.75
2023-05-17T21:18:20.329Z,15.75
2023-05-17T21:23:23.210Z,15.75
2023-05-17T21:28:26.100Z,16.00
2023-05-17T21:33:31.783Z,14.25
2023-05-17T21:38:34.592Z,13.33
2023-05-17T21:43:37.482Z,14.75
2023-05-17T21:48:41.941Z,12.00
2023-05-17T21:53:45.167Z,13.00
2023-05-17T21:58:48.087Z,15.00
2023-05-17T22:03:53.408Z,14.50
2023-05-17T22:08:56.372Z,12.00
2023-05-17T22:13:59.333Z,13.50
2023-05-17T22:19:03.916Z,14.50
2023-05-17T22:24:07.662Z,12.00
2023-05-17T22:29:10.667Z,10.00
2023-05-17T22:34:15.646Z,9.50
2023-05-17T22:39:18.507Z,11.25
2023-05-17T22:44:21.961Z,11.50
2023-05-17T22:49:26.379Z,10.25
2023-05-17T22:54:29.262Z,12.50
2023-05-17T22:59:33.080Z,15.00
2023-05-17T23:04:37.865Z,10.75
2023-05-17T23:09:41.015Z,11.75
2023-05-17T23:14:43.984Z,12.50
2023-05-17T23:19:48.122Z,11.25
2023-05-17T23:24:50.872Z,15.25
2023-05-17T23:29:54.049Z,9.50
2023-05-17T23:35:03.294Z,8.50
2023-05-17T23:40:07.408Z,8.75
2023-05-17T23:45:10.778Z,10.75
2023-05-17T23:50:14.978Z,9.00
2023-05-17T23:55:18.555Z,12.25
